Alameda, Canada
Current Conditions -  °F | °C
As of 10:00 AM on Wednesday 26 Nov 2014 (Local Time) from CYEN Reporting Station
Broken Clouds Broken Clouds  
Wind Chill: -16°   Ceiling: 2500
Heat Index: -2°   Visibility: 15mi
Dew Point: -8°   Wind: 7mph
Humidity: 78%   Direction: 60°ENE
Pressure: 30.37"   Gusts: NA
Location:  49.27°N, 102.28°W
Report Text: CYEN 261600Z 06006KT 15SM BKN025 BKN230 M19/M22 A3037 RMKSC4CI0 PRESRR SLP338
Loading
Personal Weather Stations






























Interactive Weather Map New forecast layout! Learn more

10-Day Weather Forecast

Advertisements
Track Severe Weather on mobile